Historyczne dane pomiarowe

Dodano dane terminowe – wersja testowa.

Dane z okresu 1951-2019

Wersja bazy: 1.34 [2019-03-16, lista zmian], aktualizacja planowana na 2019-04-15

Dane meteo z obszaru Polski uzyskane na podstawie danych udostępnionych przez Instytut Meteorologii i Gospodarki Wodnej – Państwowy Instytut Badawczy.

 

Wybierz Datę:    

       

TemperaturaWilgotnośćWiatrCiśnienieOpadyŚniegCzas trwania zjawisk
 Stacja t tx tn tng RH VA  wxwx mslp ppp RRR   cm mm wxwxwxwxwxwxwx
1994-08-14 9.7 14.1 7.1- 77.3- 3.3 2.0---- 0.0------------
1994-08-13 11.9 16.1 9.7- 87.0- 3.7 1.3---- 0.0------------
1994-08-12 11.6 14.8 9.9- 97.5- 7.7 0.7---- 6.9------------
1994-08-11 16.6 22.6 13.9- 88.8- 6.3 2.0---- 5.8------------
1994-08-10 14.9 22.6 7.3- 82.3- 3.7 1.0---- 0.0------------
1994-08-09 15.5 19.6 13.8- 89.8- 7.3 1.3---- 0.9------------
1994-08-08 16.7 23.7 11.4- 81.0- 5.7 2.0---- 3.5------------
1994-08-07 15.3 23.2 12.9- 93.0- 7.7 0.0---- 12.5------------
1994-08-06 18.4 23.9 13.4- 72.8- 5.7 2.0---- 0.0------------
1994-08-05 17.0 23.9 11.4- 83.3- 0.7 1.7---- 0.0------------
1994-08-04 16.1 21.3 10.9- 87.5- 4.0 2.7---- 0.0------------
1994-08-03 16.9 21.8 13.4- 89.0- 3.7 2.0---- 6.1------------
1994-08-02 18.8 25.0 13.4- 72.5- 2.0 1.3---- 0.0------------
1994-08-01 19.3 26.4 14.5- 79.8- 2.7 1.3---- 1.9------------
1994-07-31 19.2 28.5 13.9- 75.8- 1.0 1.7---- 0.0------------
1994-07-30 19.7 30.0 13.4- 70.3- 1.3 1.3---- 0.0------------
1994-07-29 18.4 25.4 11.9- 72.8- 1.0 1.3---- 0.0------------
1994-07-28 17.8 24.9 12.4- 70.8- 1.7 1.3---- 0.0------------
1994-07-27 17.9 24.9 12.3- 70.8- 0.7 1.7---- 0.0------------
1994-07-26 18.2 23.9 12.4- 76.3- 1.0 1.7---- 0.0------------
1994-07-25 17.1 23.2 11.7- 77.0- 5.3 1.0---- 0.0------------
1994-07-24 16.9 21.8 10.6- 71.5- 5.7 1.0---- 0.0------------
1994-07-23 15.3 21.5 8.4- 75.5- 2.3 2.7---- 0.0------------
1994-07-22 14.2 20.5 6.5- 70.5- 0.3 1.7---- 0.0------------
1994-07-21 12.9 19.2 5.3- 79.0- 0.3 2.3---- 0.0------------
1994-07-20 13.5 17.4 8.3- 74.5- 5.0 2.7---- 0.0------------
1994-07-19 14.3 19.1 11.9- 90.3- 7.0 1.0---- 0.1------------
1994-07-18 16.5 20.5 12.1- 87.5- 6.0 1.7---- 5.9------------
1994-07-17 15.1 20.7 10.4- 88.0- 4.7 1.3---- 12.6------------
1994-07-16 14.3 19.8 10.1- 94.8- 5.3 0.7---- 3.1------------
1994-07-15 13.2 19.3 8.9- 93.5- 3.3 1.0---- 15.2------------
1994-07-14 15.1 20.3 9.4- 81.5- 4.0 2.7---- 8.5------------
1994-07-13 14.2 19.8 8.7- 84.5- 3.0 1.7---- 0.0------------
1994-07-12 13.8 17.6 7.9- 86.3- 3.0 3.3---- 0.0------------
1994-07-11 12.2 14.8 9.8- 87.3- 7.3 4.3---- 0.8------------
1994-07-10 8.7 10.3 6.9- 96.8- 8.0 2.7---- 9.9------------
1994-07-09 9.6 15.3 7.4- 90.5- 7.0 2.3---- 11.7------------
1994-07-08 11.3 15.0 7.6- 77.0- 6.0 1.7---- 0.0------------
1994-07-07 12.9 18.9 8.9- 87.3- 7.3 0.0---- 11.6------------
1994-07-06 15.0 19.3 10.5- 68.5- 5.0 2.0---- 0.0------------
1994-07-05 16.4 21.4 11.3- 77.8- 6.7 1.0---- 0.0------------
1994-07-04 16.5 23.0 9.4- 65.5- 0.0 1.0---- 0.0------------
1994-07-03 14.6 22.0 5.3- 74.5- 0.7 1.7---- 0.0------------
1994-07-02 13.3 19.8 5.1- 77.5- 0.0 1.3---- 0.0------------
1994-07-01 12.4 15.6 10.3- 90.3- 5.3 1.0---- 0.3------------
1994-06-30 16.6 24.1 12.4- 92.5- 5.0 1.7---- 12.2------------
1994-06-29 18.1 24.3 12.4- 79.8- 2.7 1.3---- 9.2------------
1994-06-28 18.2 25.3 14.1- 84.0- 3.0 1.7---- 0.0------------
1994-06-27 18.4 25.6 12.9- 70.8- 3.7 0.3---- 8.6------------
1994-06-26 17.4 23.7 7.4- 75.0- 0.7 2.0---- 0.0------------
1994-06-25 12.3 18.8 2.4- 58.0- 0.0 0.3---- 0.0------------
1994-06-24 9.7 15.8 2.4- 60.0- 0.0 0.7---- 0.0------------
1994-06-23 12.7 17.8 8.4- 81.0- 4.7 3.3---- 1.0------------
1994-06-22 14.1 20.8 4.9- 67.5- 4.0 2.7---- 1.2------------
1994-06-21 11.5 15.4 6.4- 73.8- 0.3 2.7---- 0.0------------
1994-06-20 13.7 18.0 8.1- 76.8- 4.0 1.3---- 0.0------------
1994-06-19 12.2 19.2 6.5- 75.3- 3.0 1.7---- 0.8------------
1994-06-18 7.6 13.5 -0.3- 79.5- 4.3 3.3---- 10.5------------
1994-06-17 5.8 9.4 3.4- 89.0- 8.0 2.3---- 7.5------------
1994-06-16 7.5 10.9 3.2- 78.5- 5.3 2.3---- 3.8------------
339.0 ms

 

Źródłem pochodzenia danych jest Instytut Meteorologii i Gospodarki Wodnej – Państwowy Instytut Badawczy. Dane Instytutu Meteorologii i Gospodarki Wodnej – Państwowego Instytutu Badawczego zostały przetworzone.

Dane źródłowe można odnaleźć na stronie https://dane.imgw.pl